createdAt,value
2018-04-02T00:00:58.607Z,7.60
2018-04-02T00:03:26.840Z,7.60
2018-04-02T00:05:55.062Z,6.80
2018-04-02T00:08:24.054Z,8.00
2018-04-02T00:10:52.279Z,8.00
2018-04-02T00:13:20.502Z,7.90
2018-04-02T00:15:48.731Z,8.20
2018-04-02T00:18:17.726Z,7.10
2018-04-02T00:20:45.941Z,7.10
2018-04-02T00:23:14.275Z,7.30
2018-04-02T00:25:42.510Z,7.20
2018-04-02T00:28:10.735Z,7.30
2018-04-02T00:30:38.992Z,6.90
2018-04-02T00:33:07.191Z,7.90
2018-04-02T00:35:35.407Z,7.40
2018-04-02T00:38:03.634Z,6.70
2018-04-02T00:40:32.616Z,6.40
2018-04-02T00:43:00.935Z,6.50
2018-04-02T00:45:29.170Z,6.50
2018-04-02T00:47:57.395Z,6.30
2018-04-02T00:50:25.609Z,6.20
2018-04-02T00:52:54.594Z,6.60
2018-04-02T00:55:22.827Z,6.50
2018-04-02T00:57:51.030Z,6.30
2018-04-02T01:00:19.310Z,6.10
2018-04-02T01:02:47.577Z,6.50
2018-04-02T01:05:15.824Z,6.30
2018-04-02T01:07:44.047Z,6.20
2018-04-02T01:10:12.327Z,6.10
2018-04-02T01:12:41.350Z,6.10
2018-04-02T01:15:09.571Z,6.00
2018-04-02T01:17:37.794Z,6.10
2018-04-02T01:20:06.019Z,5.90
2018-04-02T01:22:34.260Z,6.10
2018-04-02T01:25:02.544Z,6.10
2018-04-02T01:27:30.751Z,5.70
2018-04-02T01:29:58.966Z,6.00
2018-04-02T01:32:27.211Z,5.90
2018-04-02T01:34:55.431Z,5.90
2018-04-02T01:37:23.678Z,5.90
2018-04-02T01:39:51.894Z,6.10
2018-04-02T01:42:20.895Z,6.20
2018-04-02T01:44:49.878Z,6.00
2018-04-02T01:47:18.095Z,6.00
2018-04-02T01:49:47.074Z,5.90
2018-04-02T01:52:15.303Z,5.90
2018-04-02T01:54:43.554Z,6.00
2018-04-02T01:57:11.781Z,5.90
2018-04-02T01:59:40.032Z,5.90
2018-04-02T02:02:08.279Z,5.90
2018-04-02T02:04:37.237Z,6.00
2018-04-02T02:07:06.239Z,6.00
2018-04-02T02:09:35.239Z,6.00
2018-04-02T02:12:03.447Z,6.10
2018-04-02T02:14:32.426Z,6.20
2018-04-02T02:17:00.646Z,6.20
2018-04-02T02:19:28.854Z,6.00
2018-04-02T02:21:57.087Z,6.00
2018-04-02T02:24:25.294Z,6.10
2018-04-02T02:26:54.283Z,6.00
2018-04-02T02:29:22.506Z,6.00
2018-04-02T02:31:50.727Z,6.10
2018-04-02T02:34:19.004Z,6.00
2018-04-02T02:36:47.215Z,6.00
2018-04-02T02:39:15.441Z,5.90
2018-04-02T02:41:44.436Z,5.70
2018-04-02T02:44:12.663Z,5.70
2018-04-02T02:46:41.351Z,5.80
2018-04-02T02:49:09.516Z,5.70
2018-04-02T02:51:38.503Z,5.80
2018-04-02T02:54:06.738Z,5.80
2018-04-02T02:56:34.972Z,5.90
2018-04-02T02:59:03.188Z,5.80
2018-04-02T03:01:32.176Z,5.70
2018-04-02T03:04:00.398Z,5.60
2018-04-02T03:06:28.622Z,5.60
2018-04-02T03:08:56.834Z,5.60
2018-04-02T03:11:25.058Z,5.50
2018-04-02T03:13:53.268Z,5.60
2018-04-02T03:16:21.486Z,5.60
2018-04-02T03:18:49.709Z,5.60
2018-04-02T03:21:18.683Z,5.60
2018-04-02T03:23:46.902Z,5.60
2018-04-02T03:26:15.882Z,5.60
2018-04-02T03:28:44.114Z,5.50
2018-04-02T03:31:12.357Z,5.60
2018-04-02T03:33:40.573Z,5.40
2018-04-02T03:36:09.554Z,5.40
2018-04-02T03:38:37.770Z,5.40
2018-04-02T03:41:06.003Z,5.50
2018-04-02T03:43:34.209Z,5.50
2018-04-02T03:46:02.437Z,5.50
2018-04-02T03:48:30.666Z,5.50
2018-04-02T03:50:58.872Z,5.40
2018-04-02T03:53:27.777Z,5.40
2018-04-02T03:55:55.994Z,5.20
2018-04-02T03:58:24.979Z,5.30
2018-04-02T04:00:53.190Z,5.30
2018-04-02T04:03:22.177Z,5.30
2018-04-02T04:05:50.402Z,5.30
2018-04-02T04:08:18.615Z,5.20
2018-04-02T04:10:46.827Z,5.20
2018-04-02T04:13:15.066Z,5.30
2018-04-02T04:15:43.302Z,5.40
2018-04-02T04:18:11.522Z,5.40
2018-04-02T04:20:40.486Z,5.20
2018-04-02T04:23:08.707Z,5.20
2018-04-02T04:25:37.691Z,5.20
2018-04-02T04:28:05.904Z,5.30
2018-04-02T04:30:34.886Z,5.20
2018-04-02T04:33:03.099Z,5.20
2018-04-02T04:35:32.090Z,5.10
2018-04-02T04:38:01.083Z,5.10
2018-04-02T04:40:29.317Z,5.10
2018-04-02T04:42:58.270Z,5.20
2018-04-02T04:45:26.519Z,5.20
2018-04-02T04:47:54.750Z,5.10
2018-04-02T04:50:22.971Z,5.10
2018-04-02T04:52:51.190Z,5.10
2018-04-02T04:55:19.415Z,5.00
2018-04-02T04:57:47.635Z,5.00
2018-04-02T05:00:15.856Z,4.90
2018-04-02T05:02:44.088Z,4.80
2018-04-02T05:05:12.832Z,4.80
2018-04-02T05:07:41.062Z,4.90
2018-04-02T05:10:09.275Z,4.80
2018-04-02T05:12:38.246Z,4.90
2018-04-02T05:15:06.466Z,4.80
2018-04-02T05:17:35.492Z,4.80
2018-04-02T05:20:03.671Z,4.80
2018-04-02T05:22:31.896Z,4.90
2018-04-02T05:25:00.107Z,4.90
2018-04-02T05:27:28.318Z,4.90
2018-04-02T05:29:57.307Z,4.80
2018-04-02T05:32:26.433Z,4.70
2018-04-02T05:34:55.456Z,4.80
2018-04-02T05:37:23.666Z,4.90
2018-04-02T05:39:51.879Z,4.80
2018-04-02T05:42:20.098Z,4.80
2018-04-02T05:44:49.081Z,4.90
2018-04-02T05:47:17.327Z,4.80
2018-04-02T05:49:45.544Z,4.80
2018-04-02T05:52:13.791Z,4.90
2018-04-02T05:54:42.028Z,5.00
2018-04-02T05:57:10.265Z,5.10
2018-04-02T05:59:38.487Z,5.10
2018-04-02T06:02:06.716Z,5.10
2018-04-02T06:04:34.929Z,5.20
2018-04-02T06:07:03.223Z,5.30
2018-04-02T06:09:31.453Z,5.20
2018-04-02T06:11:59.671Z,5.30
2018-04-02T06:14:28.673Z,5.40
2018-04-02T06:16:57.662Z,5.40
2018-04-02T06:19:25.898Z,5.30
2018-04-02T06:21:54.197Z,5.40
2018-04-02T06:24:22.396Z,5.40
2018-04-02T06:26:50.622Z,5.40
2018-04-02T06:29:18.849Z,5.50
2018-04-02T06:31:47.070Z,5.70
2018-04-02T06:34:15.306Z,5.70
2018-04-02T06:36:44.310Z,5.70
2018-04-02T06:39:13.327Z,5.70
2018-04-02T06:41:41.563Z,5.70
2018-04-02T06:44:09.781Z,5.80
2018-04-02T06:46:38.768Z,5.80
2018-04-02T06:49:06.995Z,5.80
2018-04-02T06:51:35.215Z,5.60
2018-04-02T06:54:03.442Z,5.60
2018-04-02T06:56:31.655Z,5.70
2018-04-02T06:59:01.397Z,5.80
2018-04-02T07:01:29.602Z,5.80
2018-04-02T07:03:57.829Z,5.80
2018-04-02T07:06:26.822Z,6.00
2018-04-02T07:08:55.038Z,5.90
2018-04-02T07:11:24.035Z,6.00
2018-04-02T07:13:53.006Z,6.00
2018-04-02T07:16:21.231Z,6.00
2018-04-02T07:18:50.266Z,5.90
2018-04-02T07:21:18.504Z,5.90
2018-04-02T07:23:46.763Z,6.00
2018-04-02T07:26:15.007Z,6.00
2018-04-02T07:28:44.008Z,6.20
2018-04-02T07:31:12.226Z,6.20
2018-04-02T07:33:40.457Z,6.20
2018-04-02T07:36:08.682Z,6.30
2018-04-02T07:38:37.671Z,6.30
2018-04-02T07:41:06.661Z,6.20
2018-04-02T07:43:34.887Z,6.30
2018-04-02T07:46:03.126Z,6.50
2018-04-02T07:48:31.347Z,6.80
2018-04-02T07:51:00.341Z,6.60
2018-04-02T07:53:28.595Z,6.60
2018-04-02T07:55:56.824Z,6.40
2018-04-02T07:58:25.814Z,6.50
2018-04-02T08:00:54.083Z,6.50
2018-04-02T08:03:22.308Z,6.60
2018-04-02T08:05:51.286Z,6.60
2018-04-02T08:08:19.512Z,6.60
2018-04-02T08:10:47.750Z,6.60
2018-04-02T08:13:15.983Z,7.10
2018-04-02T08:15:45.721Z,6.70
2018-04-02T08:18:14.709Z,6.60
2018-04-02T08:20:43.759Z,7.00
2018-04-02T08:23:12.805Z,6.80
2018-04-02T08:25:41.063Z,6.80
2018-04-02T08:28:09.263Z,6.90
2018-04-02T08:30:38.245Z,6.90
2018-04-02T08:33:06.475Z,6.80
2018-04-02T08:35:34.694Z,7.10
2018-04-02T08:38:03.687Z,6.90
2018-04-02T08:40:32.707Z,7.00
2018-04-02T08:43:00.939Z,7.00
2018-04-02T08:45:29.150Z,6.80
2018-04-02T08:47:57.373Z,7.10
2018-04-02T08:50:26.351Z,7.80
2018-04-02T08:52:54.617Z,7.70
2018-04-02T08:55:22.816Z,8.10
2018-04-02T08:57:51.042Z,8.00
2018-04-02T09:00:19.320Z,7.60
2018-04-02T09:02:47.657Z,7.50
2018-04-02T09:05:15.915Z,7.40
2018-04-02T09:07:44.228Z,7.50
2018-04-02T09:10:12.449Z,7.80
2018-04-02T09:12:41.814Z,7.40
2018-04-02T09:15:10.140Z,7.60
2018-04-02T09:17:38.735Z,7.50
2018-04-02T09:20:06.920Z,7.90
2018-04-02T09:22:35.143Z,7.80
2018-04-02T09:25:05.002Z,7.60
2018-04-02T09:27:33.254Z,7.60
2018-04-02T09:30:01.581Z,7.90
2018-04-02T09:32:30.609Z,7.90
2018-04-02T09:34:58.914Z,7.90
2018-04-02T09:37:27.119Z,8.30
2018-04-02T09:39:55.342Z,8.50
2018-04-02T09:42:23.701Z,8.10
2018-04-02T09:44:51.921Z,8.10
2018-04-02T09:47:20.276Z,8.20
2018-04-02T09:49:49.051Z,8.30
2018-04-02T09:52:17.290Z,8.90
2018-04-02T09:54:46.281Z,8.50
2018-04-02T09:57:15.148Z,8.50
2018-04-02T09:59:43.495Z,8.30
2018-04-02T10:02:13.539Z,8.40
2018-04-02T10:04:42.714Z,8.50
2018-04-02T10:07:12.496Z,9.20
2018-04-02T10:09:40.692Z,9.20
2018-04-02T10:12:08.890Z,8.60
2018-04-02T10:14:37.142Z,9.00
2018-04-02T10:17:05.411Z,9.10
2018-04-02T10:19:33.585Z,8.80
2018-04-02T10:22:02.580Z,8.90
2018-04-02T10:24:30.818Z,8.90
2018-04-02T10:26:59.540Z,9.40
2018-04-02T10:29:27.738Z,9.50
2018-04-02T10:31:55.968Z,9.80
2018-04-02T10:34:24.948Z,9.90
2018-04-02T10:36:53.152Z,9.90
2018-04-02T10:39:22.134Z,10.40
2018-04-02T10:41:50.505Z,10.40
2018-04-02T10:44:18.839Z,10.10
2018-04-02T10:46:47.812Z,10.40
2018-04-02T10:49:16.075Z,10.40
2018-04-02T10:51:44.329Z,10.20
2018-04-02T10:54:12.527Z,10.10
2018-04-02T10:56:40.755Z,10.80
2018-04-02T10:59:08.982Z,10.80
2018-04-02T11:01:37.962Z,11.30
2018-04-02T11:04:06.179Z,11.30
2018-04-02T11:06:34.410Z,11.60
2018-04-02T11:09:02.617Z,11.50
2018-04-02T11:11:30.839Z,11.40
2018-04-02T11:13:59.818Z,11.40
2018-04-02T11:16:28.047Z,11.40
2018-04-02T11:18:56.267Z,11.30
2018-04-02T11:21:24.614Z,11.10
2018-04-02T11:23:52.831Z,11.50
2018-04-02T11:26:21.049Z,11.90
2018-04-02T11:28:49.332Z,11.60
2018-04-02T11:31:17.569Z,11.40
2018-04-02T11:33:46.605Z,11.70
2018-04-02T11:36:14.870Z,11.70
2018-04-02T11:38:43.095Z,11.90
2018-04-02T11:41:11.393Z,12.20
2018-04-02T11:43:39.614Z,12.30
2018-04-02T11:48:44.080Z,12.50
2018-04-02T11:51:12.360Z,12.50
2018-04-02T11:53:40.581Z,12.40
2018-04-02T11:56:08.799Z,12.10
2018-04-02T11:58:37.040Z,12.20
2018-04-02T12:01:06.047Z,12.30
2018-04-02T12:03:34.277Z,12.30
2018-04-02T12:06:02.492Z,12.00
2018-04-02T12:08:30.704Z,12.40
2018-04-02T12:10:59.711Z,12.40
2018-04-02T12:13:27.943Z,12.40
2018-04-02T12:15:56.155Z,12.40
2018-04-02T12:18:24.377Z,12.90
2018-04-02T12:20:53.371Z,12.80
2018-04-02T12:23:21.570Z,12.80
2018-04-02T12:25:50.571Z,12.40
2018-04-02T12:28:19.605Z,13.10
2018-04-02T12:30:47.815Z,13.10
2018-04-02T12:33:16.798Z,12.70
2018-04-02T12:35:45.045Z,12.80
2018-04-02T12:38:13.277Z,12.60
2018-04-02T12:40:41.567Z,12.60
2018-04-02T12:43:09.830Z,12.70
2018-04-02T12:45:38.066Z,12.80
2018-04-02T12:48:06.291Z,12.90
2018-04-02T12:50:35.272Z,12.90
2018-04-02T12:53:03.483Z,12.90
2018-04-02T12:55:32.450Z,12.90
2018-04-02T12:58:00.684Z,12.90
2018-04-02T13:00:29.674Z,12.80
2018-04-02T13:02:57.890Z,12.70
2018-04-02T13:05:26.102Z,12.70
2018-04-02T13:07:54.324Z,13.20
2018-04-02T13:10:22.551Z,13.60
2018-04-02T13:12:51.538Z,13.50
2018-04-02T13:15:20.529Z,13.80
2018-04-02T13:17:48.784Z,13.80
2018-04-02T13:20:17.123Z,13.90
2018-04-02T13:22:46.183Z,14.00
2018-04-02T13:25:15.274Z,13.60
2018-04-02T13:27:43.575Z,13.60
2018-04-02T13:30:11.847Z,13.50
2018-04-02T13:32:40.060Z,13.70
2018-04-02T13:35:08.283Z,13.70
2018-04-02T13:37:36.554Z,13.70
2018-04-02T13:40:04.758Z,13.10
2018-04-02T13:42:32.979Z,12.90
2018-04-02T13:45:01.199Z,13.20
2018-04-02T13:47:29.420Z,13.40
2018-04-02T13:49:57.631Z,13.00
2018-04-02T13:52:26.610Z,12.90
2018-04-02T13:54:54.820Z,12.90
2018-04-02T13:57:23.803Z,12.80
2018-04-02T13:59:52.023Z,12.80
2018-04-02T14:02:20.238Z,12.70
2018-04-02T14:04:48.458Z,12.80
2018-04-02T14:07:16.700Z,12.70
2018-04-02T14:09:44.939Z,12.90
2018-04-02T14:12:13.190Z,13.10
2018-04-02T14:14:41.437Z,13.10
2018-04-02T14:17:10.406Z,13.50
2018-04-02T14:19:38.638Z,13.50
2018-04-02T14:22:06.867Z,13.50
2018-04-02T14:24:35.067Z,13.40
2018-04-02T14:27:03.278Z,13.40
2018-04-02T14:29:32.265Z,13.10
2018-04-02T14:32:00.545Z,13.10
2018-04-02T14:34:28.750Z,12.90
2018-04-02T14:36:56.966Z,12.90
2018-04-02T14:39:25.219Z,13.00
2018-04-02T14:41:53.447Z,13.20
2018-04-02T14:44:21.702Z,13.10
2018-04-02T14:46:49.906Z,13.10
2018-04-02T14:49:18.904Z,13.00
2018-04-02T14:51:47.136Z,13.00
2018-04-02T14:54:15.381Z,12.90
2018-04-02T14:56:43.632Z,12.90
2018-04-02T14:59:11.872Z,12.80
2018-04-02T15:01:40.898Z,12.50
2018-04-02T15:04:09.102Z,12.40
2018-04-02T15:06:37.318Z,12.50
2018-04-02T15:09:06.347Z,12.60
2018-04-02T15:11:34.550Z,12.70
2018-04-02T15:14:02.766Z,12.70
2018-04-02T15:16:30.990Z,12.40
2018-04-02T15:18:59.198Z,12.20
2018-04-02T15:21:28.195Z,12.40
2018-04-02T15:23:56.403Z,12.40
2018-04-02T15:26:25.377Z,12.10
2018-04-02T15:28:53.594Z,12.00
2018-04-02T15:31:22.588Z,12.10
2018-04-02T15:33:51.575Z,11.90
2018-04-02T15:36:19.798Z,11.80
2018-04-02T15:38:48.030Z,11.90
2018-04-02T15:41:16.256Z,11.90
2018-04-02T15:43:44.653Z,12.00
2018-04-02T15:46:12.908Z,12.00
2018-04-02T15:48:41.124Z,12.00
2018-04-02T15:51:09.306Z,12.00
2018-04-02T15:53:38.298Z,12.10
2018-04-02T15:56:06.511Z,12.00
2018-04-02T15:58:35.483Z,12.20
2018-04-02T16:01:03.756Z,12.20
2018-04-02T16:03:32.697Z,12.00
2018-04-02T16:06:00.910Z,12.00
2018-04-02T16:08:29.886Z,12.20
2018-04-02T16:10:58.146Z,12.20
2018-04-02T16:13:27.122Z,12.20
2018-04-02T16:15:55.342Z,12.10
2018-04-02T16:18:23.567Z,12.10
2018-04-02T16:20:52.544Z,12.20
2018-04-02T16:23:20.761Z,12.20
2018-04-02T16:25:49.767Z,12.30
2018-04-02T16:28:18.734Z,12.20
2018-04-02T16:30:46.992Z,12.20
2018-04-02T16:33:15.216Z,12.10
2018-04-02T16:35:43.479Z,12.10
2018-04-02T16:38:11.690Z,12.10
2018-04-02T16:40:41.901Z,12.10
2018-04-02T16:43:10.118Z,12.10
2018-04-02T16:45:38.336Z,12.10
2018-04-02T16:48:07.330Z,12.00
2018-04-02T16:50:36.315Z,12.00
2018-04-02T16:53:04.526Z,12.00
2018-04-02T16:55:33.569Z,12.00
2018-04-02T16:58:01.788Z,12.00
2018-04-02T17:00:29.998Z,12.00
2018-04-02T17:02:58.247Z,12.00
2018-04-02T17:05:26.466Z,11.90
2018-04-02T17:07:54.730Z,12.00
2018-04-02T17:10:22.962Z,11.90
2018-04-02T17:12:51.963Z,11.90
2018-04-02T17:15:20.202Z,11.90
2018-04-02T17:17:48.429Z,11.90
2018-04-02T17:20:16.670Z,11.80
2018-04-02T17:22:44.910Z,11.70
2018-04-02T17:25:13.363Z,11.70
2018-04-02T17:27:42.587Z,11.80
2018-04-02T17:30:11.607Z,11.80
2018-04-02T17:32:39.832Z,11.80
2018-04-02T17:35:08.848Z,11.80
2018-04-02T17:37:37.031Z,11.70
2018-04-02T17:40:05.262Z,11.80
2018-04-02T17:42:33.515Z,11.70
2018-04-02T17:45:01.743Z,11.70
2018-04-02T17:47:29.972Z,11.70
2018-04-02T17:49:58.969Z,11.60
2018-04-02T17:52:27.981Z,11.60
2018-04-02T17:54:56.982Z,11.50
2018-04-02T17:57:25.963Z,11.50
2018-04-02T17:59:54.194Z,11.50
2018-04-02T18:02:22.543Z,11.50
2018-04-02T18:04:50.860Z,11.50
2018-04-02T18:07:19.120Z,11.50
2018-04-02T18:09:47.383Z,11.50
2018-04-02T18:12:15.617Z,11.30
2018-04-02T18:14:43.856Z,11.30
2018-04-02T18:17:12.125Z,11.20
2018-04-02T18:19:40.369Z,11.00
2018-04-02T18:22:08.579Z,11.20
2018-04-02T18:24:37.563Z,11.30
2018-04-02T18:27:05.789Z,11.30
2018-04-02T18:29:34.082Z,11.30
2018-04-02T18:32:02.316Z,11.30
2018-04-02T18:34:30.549Z,11.10
2018-04-02T18:36:59.373Z,11.10
2018-04-02T18:39:27.606Z,11.00
2018-04-02T18:41:55.835Z,11.10
2018-04-02T18:44:24.059Z,11.20
2018-04-02T18:46:52.305Z,11.10
2018-04-02T18:49:20.915Z,11.10
2018-04-02T18:51:49.141Z,11.10
2018-04-02T18:54:18.093Z,11.10
2018-04-02T18:56:47.083Z,11.00
2018-04-02T18:59:16.154Z,11.00
2018-04-02T19:01:44.394Z,11.00
2018-04-02T19:04:12.655Z,11.00
2018-04-02T19:06:41.649Z,11.00
2018-04-02T19:09:09.883Z,11.00
2018-04-02T19:11:38.107Z,10.90
2018-04-02T19:14:06.344Z,11.00
2018-04-02T19:16:35.338Z,10.90
2018-04-02T19:19:04.326Z,10.90
2018-04-02T19:21:32.554Z,10.90
2018-04-02T19:24:01.546Z,10.90
2018-04-02T19:26:30.537Z,10.90
2018-04-02T19:29:00.251Z,10.90
2018-04-02T19:31:28.483Z,10.80
2018-04-02T19:33:56.711Z,10.90
2018-04-02T19:36:24.934Z,10.90
2018-04-02T19:38:53.950Z,10.80
2018-04-02T19:41:22.946Z,10.80
2018-04-02T19:43:51.939Z,10.80
2018-04-02T19:46:20.199Z,10.70
2018-04-02T19:48:48.418Z,10.80
2018-04-02T19:51:17.429Z,10.90
2018-04-02T19:53:46.431Z,10.80
2018-04-02T19:56:14.675Z,10.80
2018-04-02T19:58:42.902Z,10.80
2018-04-02T20:01:11.135Z,10.70
2018-04-02T20:03:39.367Z,10.80
2018-04-02T20:06:09.192Z,10.80
2018-04-02T20:08:37.380Z,10.80
2018-04-02T20:11:05.659Z,10.70
2018-04-02T20:13:33.887Z,10.80
2018-04-02T20:16:02.879Z,10.70
2018-04-02T20:18:31.918Z,10.80
2018-04-02T20:21:00.894Z,10.80
2018-04-02T20:23:29.908Z,10.80
2018-04-02T20:25:58.890Z,10.80
2018-04-02T20:28:27.127Z,10.70
2018-04-02T20:30:55.386Z,10.70
2018-04-02T20:33:24.400Z,10.60
2018-04-02T20:35:53.382Z,10.60
2018-04-02T20:38:21.619Z,10.60
2018-04-02T20:40:49.839Z,10.70
2018-04-02T20:43:18.094Z,10.60
2018-04-02T20:45:46.321Z,10.60
2018-04-02T20:48:14.559Z,10.60
2018-04-02T20:50:43.007Z,10.60
2018-04-02T20:53:11.300Z,10.60
2018-04-02T20:55:39.586Z,10.60
2018-04-02T20:58:07.813Z,10.60
2018-04-02T21:00:36.068Z,10.50
2018-04-02T21:03:04.283Z,10.60
2018-04-02T21:05:33.294Z,10.40
2018-04-02T21:08:02.275Z,10.40
2018-04-02T21:10:31.292Z,10.30
2018-04-02T21:13:00.288Z,10.30
2018-04-02T21:15:29.302Z,10.10
2018-04-02T21:17:58.294Z,10.20
2018-04-02T21:20:26.528Z,10.30
2018-04-02T21:22:54.811Z,10.40
2018-04-02T21:25:23.007Z,10.30
2018-04-02T21:27:51.270Z,10.30
2018-04-02T21:30:19.470Z,10.20
2018-04-02T21:32:47.743Z,10.20
2018-04-02T21:35:16.760Z,10.10
2018-04-02T21:37:45.006Z,10.10
2018-04-02T21:40:13.234Z,10.20
2018-04-02T21:42:41.466Z,10.10
2018-04-02T21:45:09.726Z,10.10
2018-04-02T21:47:38.693Z,10.00
2018-04-02T21:50:07.671Z,9.90
2018-04-02T21:52:35.911Z,9.90
2018-04-02T21:55:04.135Z,10.00
2018-04-02T21:57:32.358Z,10.10
2018-04-02T22:00:01.407Z,10.10
2018-04-02T22:02:29.652Z,10.10
2018-04-02T22:04:57.959Z,10.10
2018-04-02T22:07:26.947Z,10.10
2018-04-02T22:09:55.171Z,10.10
2018-04-02T22:12:23.400Z,10.10
2018-04-02T22:14:51.658Z,10.10
2018-04-02T22:17:19.887Z,10.10
2018-04-02T22:19:48.134Z,10.10
2018-04-02T22:22:16.354Z,10.10
2018-04-02T22:24:44.578Z,10.20
2018-04-02T22:27:12.822Z,10.20
2018-04-02T22:29:41.037Z,10.20
2018-04-02T22:32:09.274Z,10.20
2018-04-02T22:34:37.517Z,10.10
2018-04-02T22:37:05.731Z,10.00
2018-04-02T22:39:34.021Z,10.10
2018-04-02T22:42:02.247Z,10.10
2018-04-02T22:44:30.472Z,10.00
2018-04-02T22:46:59.462Z,9.90
2018-04-02T22:49:27.690Z,9.90
2018-04-02T22:51:55.904Z,9.90
2018-04-02T22:54:24.947Z,10.00
2018-04-02T22:56:53.218Z,10.00
2018-04-02T22:59:21.457Z,10.00
2018-04-02T23:01:49.678Z,10.10
2018-04-02T23:04:17.902Z,10.00
2018-04-02T23:06:46.126Z,10.00
2018-04-02T23:09:14.365Z,10.00
2018-04-02T23:11:42.639Z,10.10
2018-04-02T23:14:10.883Z,10.00
2018-04-02T23:16:39.852Z,10.00
2018-04-02T23:19:08.847Z,10.00
2018-04-02T23:21:37.058Z,9.90
2018-04-02T23:24:06.074Z,10.00
2018-04-02T23:26:35.048Z,9.90
2018-04-02T23:29:03.263Z,9.80
2018-04-02T23:31:32.256Z,9.80
2018-04-02T23:34:00.474Z,9.80
2018-04-02T23:36:28.706Z,9.80
2018-04-02T23:38:56.935Z,9.80
2018-04-02T23:41:25.921Z,9.70
2018-04-02T23:43:54.149Z,9.70
2018-04-02T23:46:22.359Z,9.70
2018-04-02T23:48:50.583Z,9.80
2018-04-02T23:51:18.803Z,9.70
2018-04-02T23:53:47.035Z,9.70
2018-04-02T23:56:15.243Z,9.80
2018-04-02T23:58:43.484Z,9.80
